sensor_id;sensor_type;location;lat;lon;timestamp;temperature;humidity
13074;DHT22;6603;47.066;15.396;2024-02-15T00:00:15;1.50;67.40
13074;DHT22;6603;47.066;15.396;2024-02-15T00:02:45;1.50;58.40
13074;DHT22;6603;47.066;15.396;2024-02-15T00:05:12;1.40;94.40
13074;DHT22;6603;47.066;15.396;2024-02-15T00:07:39;1.50;99.90
13074;DHT22;6603;47.066;15.396;2024-02-15T00:10:05;1.50;55.80
13074;DHT22;6603;47.066;15.396;2024-02-15T00:12:31;1.40;57.50
13074;DHT22;6603;47.066;15.396;2024-02-15T00:14:57;1.30;57.30
13074;DHT22;6603;47.066;15.396;2024-02-15T00:17:24;1.20;99.90
13074;DHT22;6603;47.066;15.396;2024-02-15T00:19:51;1.40;99.80
13074;DHT22;6603;47.066;15.396;2024-02-15T00:22:17;1.30;87.90
13074;DHT22;6603;47.066;15.396;2024-02-15T00:24:43;1.50;85.80
13074;DHT22;6603;47.066;15.396;2024-02-15T00:27:11;1.50;85.70
13074;DHT22;6603;47.066;15.396;2024-02-15T00:29:37;1.50;63.30
13074;DHT22;6603;47.066;15.396;2024-02-15T00:32:03;1.50;92.50
13074;DHT22;6603;47.066;15.396;2024-02-15T00:34:29;1.30;86.50
13074;DHT22;6603;47.066;15.396;2024-02-15T00:36:55;1.20;99.90
13074;DHT22;6603;47.066;15.396;2024-02-15T00:39:22;1.20;99.90
13074;DHT22;6603;47.066;15.396;2024-02-15T00:41:48;1.20;99.90
13074;DHT22;6603;47.066;15.396;2024-02-15T00:44:14;1.10;99.90
13074;DHT22;6603;47.066;15.396;2024-02-15T00:46:40;1.20;99.90
13074;DHT22;6603;47.066;15.396;2024-02-15T00:49:07;1.10;99.90
13074;DHT22;6603;47.066;15.396;2024-02-15T00:51:35;1.20;99.90
13074;DHT22;6603;47.066;15.396;2024-02-15T00:54:01;1.10;99.90
13074;DHT22;6603;47.066;15.396;2024-02-15T00:56:28;1.30;99.90
13074;DHT22;6603;47.066;15.396;2024-02-15T00:58:55;1.30;87.80
13074;DHT22;6603;47.066;15.396;2024-02-15T01:01:22;1.50;99.90
13074;DHT22;6603;47.066;15.396;2024-02-15T01:03:48;1.30;89.00
13074;DHT22;6603;47.066;15.396;2024-02-15T01:06:13;1.40;99.90
13074;DHT22;6603;47.066;15.396;2024-02-15T01:08:39;1.70;99.90
13074;DHT22;6603;47.066;15.396;2024-02-15T01:11:05;1.50;99.90
13074;DHT22;6603;47.066;15.396;2024-02-15T01:13:32;1.40;99.90
13074;DHT22;6603;47.066;15.396;2024-02-15T01:15:58;1.40;99.90
13074;DHT22;6603;47.066;15.396;2024-02-15T01:18:24;1.50;99.90
13074;DHT22;6603;47.066;15.396;2024-02-15T01:20:50;1.60;97.60
13074;DHT22;6603;47.066;15.396;2024-02-15T01:23:18;1.70;99.90
13074;DHT22;6603;47.066;15.396;2024-02-15T01:25:43;1.60;99.90
13074;DHT22;6603;47.066;15.396;2024-02-15T01:28:11;1.50;99.90
13074;DHT22;6603;47.066;15.396;2024-02-15T01:30:37;1.40;99.90
13074;DHT22;6603;47.066;15.396;2024-02-15T01:33:03;1.40;99.90
13074;DHT22;6603;47.066;15.396;2024-02-15T01:35:29;1.60;99.90
13074;DHT22;6603;47.066;15.396;2024-02-15T01:37:55;1.60;99.90
13074;DHT22;6603;47.066;15.396;2024-02-15T01:40:21;1.70;99.90
13074;DHT22;6603;47.066;15.396;2024-02-15T01:42:47;1.60;90.20
13074;DHT22;6603;47.066;15.396;2024-02-15T01:45:16;1.70;99.90
13074;DHT22;6603;47.066;15.396;2024-02-15T01:47:42;1.70;99.90
13074;DHT22;6603;47.066;15.396;2024-02-15T01:50:11;1.80;99.90
13074;DHT22;6603;47.066;15.396;2024-02-15T01:52:38;1.80;99.90
13074;DHT22;6603;47.066;15.396;2024-02-15T01:55:05;1.80;99.90
13074;DHT22;6603;47.066;15.396;2024-02-15T01:57:35;1.60;99.90
13074;DHT22;6603;47.066;15.396;2024-02-15T02:00:02;1.40;99.90
13074;DHT22;6603;47.066;15.396;2024-02-15T02:02:31;1.40;99.90
13074;DHT22;6603;47.066;15.396;2024-02-15T02:04:59;1.80;99.90
13074;DHT22;6603;47.066;15.396;2024-02-15T02:07:25;1.80;99.90
13074;DHT22;6603;47.066;15.396;2024-02-15T02:09:51;1.90;99.90
13074;DHT22;6603;47.066;15.396;2024-02-15T02:12:17;1.90;99.90
13074;DHT22;6603;47.066;15.396;2024-02-15T02:14:43;2.00;99.90
13074;DHT22;6603;47.066;15.396;2024-02-15T02:17:13;2.10;99.90
13074;DHT22;6603;47.066;15.396;2024-02-15T02:19:41;2.00;96.50
13074;DHT22;6603;47.066;15.396;2024-02-15T02:22:09;2.00;99.90
13074;DHT22;6603;47.066;15.396;2024-02-15T02:25:05;1.90;99.90
13074;DHT22;6603;47.066;15.396;2024-02-15T02:27:32;2.00;99.90
13074;DHT22;6603;47.066;15.396;2024-02-15T02:29:59;2.10;99.90
13074;DHT22;6603;47.066;15.396;2024-02-15T02:32:25;2.20;99.90
13074;DHT22;6603;47.066;15.396;2024-02-15T02:34:52;2.00;99.90
13074;DHT22;6603;47.066;15.396;2024-02-15T02:37:24;2.00;99.90
13074;DHT22;6603;47.066;15.396;2024-02-15T02:39:50;2.10;99.90
13074;DHT22;6603;47.066;15.396;2024-02-15T02:42:16;2.10;99.90
13074;DHT22;6603;47.066;15.396;2024-02-15T02:44:42;2.10;99.90
13074;DHT22;6603;47.066;15.396;2024-02-15T02:47:08;2.00;99.90
13074;DHT22;6603;47.066;15.396;2024-02-15T02:49:37;2.10;99.90
13074;DHT22;6603;47.066;15.396;2024-02-15T02:52:03;2.30;99.90
13074;DHT22;6603;47.066;15.396;2024-02-15T02:54:30;2.30;99.90
13074;DHT22;6603;47.066;15.396;2024-02-15T02:56:56;2.50;99.90
13074;DHT22;6603;47.066;15.396;2024-02-15T02:59:22;2.40;93.50
13074;DHT22;6603;47.066;15.396;2024-02-15T03:01:48;2.50;99.90
13074;DHT22;6603;47.066;15.396;2024-02-15T03:04:17;2.40;84.80
13074;DHT22;6603;47.066;15.396;2024-02-15T03:06:43;2.20;99.90
13074;DHT22;6603;47.066;15.396;2024-02-15T03:09:10;2.30;99.90
13074;DHT22;6603;47.066;15.396;2024-02-15T03:11:36;2.30;99.90
13074;DHT22;6603;47.066;15.396;2024-02-15T03:14:03;2.30;99.90
13074;DHT22;6603;47.066;15.396;2024-02-15T03:16:32;2.40;99.90
13074;DHT22;6603;47.066;15.396;2024-02-15T03:18:59;2.20;99.90
13074;DHT22;6603;47.066;15.396;2024-02-15T03:21:28;2.30;99.90
13074;DHT22;6603;47.066;15.396;2024-02-15T03:23:54;2.50;99.90
13074;DHT22;6603;47.066;15.396;2024-02-15T03:26:31;2.50;99.90
13074;DHT22;6603;47.066;15.396;2024-02-15T03:29:03;2.50;99.90
13074;DHT22;6603;47.066;15.396;2024-02-15T03:31:29;2.60;99.90
13074;DHT22;6603;47.066;15.396;2024-02-15T03:33:57;2.60;99.90
13074;DHT22;6603;47.066;15.396;2024-02-15T03:36:25;2.70;99.90
13074;DHT22;6603;47.066;15.396;2024-02-15T03:38:51;2.70;99.90
13074;DHT22;6603;47.066;15.396;2024-02-15T03:41:19;2.60;99.90
13074;DHT22;6603;47.066;15.396;2024-02-15T03:43:46;2.70;99.90
13074;DHT22;6603;47.066;15.396;2024-02-15T03:46:15;2.80;99.90
13074;DHT22;6603;47.066;15.396;2024-02-15T03:48:43;2.70;99.90
13074;DHT22;6603;47.066;15.396;2024-02-15T03:51:16;2.80;99.90
13074;DHT22;6603;47.066;15.396;2024-02-15T03:53:44;2.60;99.90
13074;DHT22;6603;47.066;15.396;2024-02-15T03:56:10;2.60;99.90
13074;DHT22;6603;47.066;15.396;2024-02-15T03:58:36;2.50;99.90
13074;DHT22;6603;47.066;15.396;2024-02-15T04:01:04;2.70;99.90
13074;DHT22;6603;47.066;15.396;2024-02-15T04:03:35;2.70;99.90
13074;DHT22;6603;47.066;15.396;2024-02-15T04:06:01;2.70;99.90
13074;DHT22;6603;47.066;15.396;2024-02-15T04:08:27;2.80;99.90
13074;DHT22;6603;47.066;15.396;2024-02-15T04:10:54;2.80;99.90
13074;DHT22;6603;47.066;15.396;2024-02-15T04:13:20;2.90;99.90
13074;DHT22;6603;47.066;15.396;2024-02-15T04:15:46;2.80;99.90
13074;DHT22;6603;47.066;15.396;2024-02-15T04:18:15;2.80;99.90
13074;DHT22;6603;47.066;15.396;2024-02-15T04:20:41;2.80;99.90
13074;DHT22;6603;47.066;15.396;2024-02-15T04:23:11;3.00;99.90
13074;DHT22;6603;47.066;15.396;2024-02-15T04:25:37;3.00;99.90
13074;DHT22;6603;47.066;15.396;2024-02-15T04:28:03;2.80;99.90
13074;DHT22;6603;47.066;15.396;2024-02-15T04:30:32;2.80;99.90
13074;DHT22;6603;47.066;15.396;2024-02-15T04:33:00;2.90;99.90
13074;DHT22;6603;47.066;15.396;2024-02-15T04:35:26;3.10;99.90
13074;DHT22;6603;47.066;15.396;2024-02-15T04:37:53;3.10;99.90
13074;DHT22;6603;47.066;15.396;2024-02-15T04:40:19;3.10;99.90
13074;DHT22;6603;47.066;15.396;2024-02-15T04:42:45;3.20;99.90
13074;DHT22;6603;47.066;15.396;2024-02-15T04:45:13;3.20;99.90
13074;DHT22;6603;47.066;15.396;2024-02-15T04:47:41;3.20;99.90
13074;DHT22;6603;47.066;15.396;2024-02-15T04:50:07;2.90;99.90
13074;DHT22;6603;47.066;15.396;2024-02-15T04:52:35;2.90;99.90
13074;DHT22;6603;47.066;15.396;2024-02-15T04:55:01;2.90;99.90
13074;DHT22;6603;47.066;15.396;2024-02-15T04:57:30;3.00;99.90
13074;DHT22;6603;47.066;15.396;2024-02-15T04:59:56;3.10;99.90
13074;DHT22;6603;47.066;15.396;2024-02-15T05:02:24;3.20;99.90
13074;DHT22;6603;47.066;15.396;2024-02-15T05:04:50;3.20;99.90
13074;DHT22;6603;47.066;15.396;2024-02-15T05:07:22;3.20;99.90
13074;DHT22;6603;47.066;15.396;2024-02-15T05:09:49;3.10;99.90
13074;DHT22;6603;47.066;15.396;2024-02-15T05:12:22;3.10;99.90
13074;DHT22;6603;47.066;15.396;2024-02-15T05:14:51;3.20;99.90
13074;DHT22;6603;47.066;15.396;2024-02-15T05:17:19;3.20;99.90
13074;DHT22;6603;47.066;15.396;2024-02-15T05:19:45;3.10;99.90
13074;DHT22;6603;47.066;15.396;2024-02-15T05:22:11;3.10;99.90
13074;DHT22;6603;47.066;15.396;2024-02-15T05:24:37;3.20;99.90
13074;DHT22;6603;47.066;15.396;2024-02-15T05:27:06;3.20;99.90
13074;DHT22;6603;47.066;15.396;2024-02-15T05:29:32;3.20;99.90
13074;DHT22;6603;47.066;15.396;2024-02-15T05:32:02;3.20;99.90
13074;DHT22;6603;47.066;15.396;2024-02-15T05:34:28;3.40;99.90
13074;DHT22;6603;47.066;15.396;2024-02-15T05:36:56;3.20;99.90
13074;DHT22;6603;47.066;15.396;2024-02-15T05:39:22;3.10;99.90
13074;DHT22;6603;47.066;15.396;2024-02-15T05:41:48;3.30;99.90
13074;DHT22;6603;47.066;15.396;2024-02-15T05:44:14;3.40;99.90
13074;DHT22;6603;47.066;15.396;2024-02-15T05:46:46;3.40;99.90
13074;DHT22;6603;47.066;15.396;2024-02-15T05:49:13;3.40;99.90
13074;DHT22;6603;47.066;15.396;2024-02-15T05:51:43;3.40;99.90
13074;DHT22;6603;47.066;15.396;2024-02-15T05:54:10;3.40;99.90
13074;DHT22;6603;47.066;15.396;2024-02-15T05:56:36;3.40;99.90
13074;DHT22;6603;47.066;15.396;2024-02-15T05:59:02;3.30;99.90
13074;DHT22;6603;47.066;15.396;2024-02-15T06:01:36;3.40;99.90
13074;DHT22;6603;47.066;15.396;2024-02-15T06:04:03;3.50;99.90
13074;DHT22;6603;47.066;15.396;2024-02-15T06:06:34;3.50;99.90
13074;DHT22;6603;47.066;15.396;2024-02-15T06:09:00;3.50;99.90
13074;DHT22;6603;47.066;15.396;2024-02-15T06:11:27;3.60;99.90
13074;DHT22;6603;47.066;15.396;2024-02-15T06:13:53;3.60;99.90
13074;DHT22;6603;47.066;15.396;2024-02-15T06:16:18;3.50;99.90
13074;DHT22;6603;47.066;15.396;2024-02-15T06:18:44;3.50;99.90
13074;DHT22;6603;47.066;15.396;2024-02-15T06:21:13;3.60;99.90
13074;DHT22;6603;47.066;15.396;2024-02-15T06:23:39;3.60;99.90
13074;DHT22;6603;47.066;15.396;2024-02-15T06:26:04;3.60;99.90
13074;DHT22;6603;47.066;15.396;2024-02-15T06:28:30;3.70;99.90
13074;DHT22;6603;47.066;15.396;2024-02-15T06:31:15;3.60;99.90
13074;DHT22;6603;47.066;15.396;2024-02-15T06:33:59;3.90;99.90
13074;DHT22;6603;47.066;15.396;2024-02-15T06:36:49;4.00;99.90
13074;DHT22;6603;47.066;15.396;2024-02-15T06:39:34;4.10;99.90
13074;DHT22;6603;47.066;15.396;2024-02-15T06:42:11;4.00;99.90
13074;DHT22;6603;47.066;15.396;2024-02-15T06:44:37;4.20;99.90
13074;DHT22;6603;47.066;15.396;2024-02-15T06:47:07;4.10;99.90
13074;DHT22;6603;47.066;15.396;2024-02-15T06:49:34;4.20;99.90
13074;DHT22;6603;47.066;15.396;2024-02-15T06:52:00;4.20;99.90
13074;DHT22;6603;47.066;15.396;2024-02-15T06:54:28;4.40;99.90
13074;DHT22;6603;47.066;15.396;2024-02-15T06:56:54;4.50;99.90
13074;DHT22;6603;47.066;15.396;2024-02-15T06:59:20;4.60;99.90
13074;DHT22;6603;47.066;15.396;2024-02-15T07:01:50;4.60;99.70
13074;DHT22;6603;47.066;15.396;2024-02-15T07:04:18;4.60;99.90
13074;DHT22;6603;47.066;15.396;2024-02-15T07:06:46;4.80;94.50
13074;DHT22;6603;47.066;15.396;2024-02-15T07:09:14;4.90;99.90
13074;DHT22;6603;47.066;15.396;2024-02-15T07:11:41;5.10;94.30
13074;DHT22;6603;47.066;15.396;2024-02-15T07:14:07;5.10;95.00
13074;DHT22;6603;47.066;15.396;2024-02-15T07:16:34;5.30;98.40
13074;DHT22;6603;47.066;15.396;2024-02-15T07:19:01;5.50;90.70
13074;DHT22;6603;47.066;15.396;2024-02-15T07:21:26;5.60;78.30
13074;DHT22;6603;47.066;15.396;2024-02-15T07:23:53;5.70;62.90
13074;DHT22;6603;47.066;15.396;2024-02-15T07:26:23;5.70;61.50
13074;DHT22;6603;47.066;15.396;2024-02-15T07:28:56;5.80;39.20
13074;DHT22;6603;47.066;15.396;2024-02-15T07:31:27;5.90;24.30
13074;DHT22;6603;47.066;15.396;2024-02-15T07:33:53;6.10;44.40
13074;DHT22;6603;47.066;15.396;2024-02-15T07:36:23;6.00;7.40
13074;DHT22;6603;47.066;15.396;2024-02-15T07:38:53;6.00;1.00
13074;DHT22;6603;47.066;15.396;2024-02-15T07:41:21;6.10;1.00
13074;DHT22;6603;47.066;15.396;2024-02-15T07:43:51;6.20;1.00
13074;DHT22;6603;47.066;15.396;2024-02-15T07:46:21;6.30;1.00
13074;DHT22;6603;47.066;15.396;2024-02-15T07:48:48;6.30;1.00
13074;DHT22;6603;47.066;15.396;2024-02-15T07:51:16;6.50;1.00
13074;DHT22;6603;47.066;15.396;2024-02-15T07:53:44;6.60;1.00
13074;DHT22;6603;47.066;15.396;2024-02-15T07:56:10;6.60;1.00
13074;DHT22;6603;47.066;15.396;2024-02-15T07:58:47;6.80;1.00
13074;DHT22;6603;47.066;15.396;2024-02-15T08:01:14;6.80;1.00
13074;DHT22;6603;47.066;15.396;2024-02-15T08:03:42;7.00;1.00
13074;DHT22;6603;47.066;15.396;2024-02-15T08:06:11;7.00;1.00
13074;DHT22;6603;47.066;15.396;2024-02-15T08:08:43;7.10;1.00
13074;DHT22;6603;47.066;15.396;2024-02-15T08:11:15;7.10;1.00
13074;DHT22;6603;47.066;15.396;2024-02-15T08:13:49;7.10;1.00
13074;DHT22;6603;47.066;15.396;2024-02-15T08:16:16;7.10;1.00
13074;DHT22;6603;47.066;15.396;2024-02-15T08:18:45;7.10;1.00
13074;DHT22;6603;47.066;15.396;2024-02-15T08:21:14;7.20;1.00
13074;DHT22;6603;47.066;15.396;2024-02-15T08:23:40;7.30;1.00
13074;DHT22;6603;47.066;15.396;2024-02-15T08:26:06;7.40;1.00
13074;DHT22;6603;47.066;15.396;2024-02-15T08:28:32;7.40;1.00
13074;DHT22;6603;47.066;15.396;2024-02-15T08:30:58;7.40;1.00
13074;DHT22;6603;47.066;15.396;2024-02-15T08:33:24;7.50;1.00
13074;DHT22;6603;47.066;15.396;2024-02-15T08:35:51;7.50;99.90
13074;DHT22;6603;47.066;15.396;2024-02-15T08:38:22;7.60;1.00
13074;DHT22;6603;47.066;15.396;2024-02-15T08:40:48;7.70;1.00
13074;DHT22;6603;47.066;15.396;2024-02-15T08:43:14;7.80;1.00
13074;DHT22;6603;47.066;15.396;2024-02-15T08:45:41;7.80;1.00
13074;DHT22;6603;47.066;15.396;2024-02-15T08:48:08;8.00;1.00
13074;DHT22;6603;47.066;15.396;2024-02-15T08:50:34;8.10;99.90
13074;DHT22;6603;47.066;15.396;2024-02-15T08:53:00;8.20;1.00
13074;DHT22;6603;47.066;15.396;2024-02-15T08:55:27;8.40;1.00
13074;DHT22;6603;47.066;15.396;2024-02-15T08:57:54;8.50;83.90
13074;DHT22;6603;47.066;15.396;2024-02-15T09:00:20;8.60;99.90
13074;DHT22;6603;47.066;15.396;2024-02-15T09:02:47;8.70;91.10
13074;DHT22;6603;47.066;15.396;2024-02-15T09:05:13;8.80;1.00
13074;DHT22;6603;47.066;15.396;2024-02-15T09:07:44;8.80;1.00
13074;DHT22;6603;47.066;15.396;2024-02-15T09:10:14;9.00;1.00
13074;DHT22;6603;47.066;15.396;2024-02-15T09:12:43;9.10;1.00
13074;DHT22;6603;47.066;15.396;2024-02-15T09:15:12;9.20;1.00
13074;DHT22;6603;47.066;15.396;2024-02-15T09:17:38;9.30;1.00
13074;DHT22;6603;47.066;15.396;2024-02-15T09:20:08;9.40;99.90
13074;DHT22;6603;47.066;15.396;2024-02-15T09:22:41;9.50;99.90
13074;DHT22;6603;47.066;15.396;2024-02-15T09:25:08;9.70;99.90
13074;DHT22;6603;47.066;15.396;2024-02-15T09:27:35;9.90;99.90
13074;DHT22;6603;47.066;15.396;2024-02-15T09:30:02;10.10;1.00
13074;DHT22;6603;47.066;15.396;2024-02-15T09:32:28;10.30;99.90
13074;DHT22;6603;47.066;15.396;2024-02-15T09:34:54;10.40;1.00
13074;DHT22;6603;47.066;15.396;2024-02-15T09:37:20;10.50;1.00
13074;DHT22;6603;47.066;15.396;2024-02-15T09:39:46;10.50;1.00
13074;DHT22;6603;47.066;15.396;2024-02-15T09:42:13;10.40;1.00
13074;DHT22;6603;47.066;15.396;2024-02-15T09:44:39;10.50;1.00
13074;DHT22;6603;47.066;15.396;2024-02-15T09:47:06;10.60;1.00
13074;DHT22;6603;47.066;15.396;2024-02-15T09:49:37;10.60;99.90
13074;DHT22;6603;47.066;15.396;2024-02-15T09:52:08;10.70;1.00
13074;DHT22;6603;47.066;15.396;2024-02-15T09:54:40;10.70;1.00
13074;DHT22;6603;47.066;15.396;2024-02-15T09:57:09;10.80;99.90
13074;DHT22;6603;47.066;15.396;2024-02-15T09:59:39;10.90;1.00
13074;DHT22;6603;47.066;15.396;2024-02-15T10:02:06;11.00;1.00
13074;DHT22;6603;47.066;15.396;2024-02-15T10:04:40;11.10;1.00
13074;DHT22;6603;47.066;15.396;2024-02-15T10:07:07;11.20;99.90
13074;DHT22;6603;47.066;15.396;2024-02-15T10:09:34;11.20;1.00
13074;DHT22;6603;47.066;15.396;2024-02-15T10:12:03;11.30;1.00
13074;DHT22;6603;47.066;15.396;2024-02-15T10:14:34;11.30;1.00
13074;DHT22;6603;47.066;15.396;2024-02-15T10:17:06;11.50;1.00
13074;DHT22;6603;47.066;15.396;2024-02-15T10:19:38;11.60;1.00
13074;DHT22;6603;47.066;15.396;2024-02-15T10:22:08;11.70;1.00
13074;DHT22;6603;47.066;15.396;2024-02-15T10:24:35;11.70;99.90
13074;DHT22;6603;47.066;15.396;2024-02-15T10:27:03;11.70;99.90
13074;DHT22;6603;47.066;15.396;2024-02-15T10:29:31;11.90;99.90
13074;DHT22;6603;47.066;15.396;2024-02-15T10:32:00;12.00;99.90
13074;DHT22;6603;47.066;15.396;2024-02-15T10:34:28;12.00;99.90
13074;DHT22;6603;47.066;15.396;2024-02-15T10:36:54;12.10;55.70
13074;DHT22;6603;47.066;15.396;2024-02-15T10:39:23;12.10;99.90
13074;DHT22;6603;47.066;15.396;2024-02-15T10:41:51;12.10;1.00
13074;DHT22;6603;47.066;15.396;2024-02-15T10:44:24;12.30;99.90
13074;DHT22;6603;47.066;15.396;2024-02-15T10:46:52;12.20;99.90
13074;DHT22;6603;47.066;15.396;2024-02-15T10:49:25;12.40;99.90
13074;DHT22;6603;47.066;15.396;2024-02-15T10:51:55;12.40;99.90
13074;DHT22;6603;47.066;15.396;2024-02-15T10:54:41;12.40;21.70
13074;DHT22;6603;47.066;15.396;2024-02-15T10:57:10;12.50;99.90
13074;DHT22;6603;47.066;15.396;2024-02-15T10:59:38;12.40;1.00
13074;DHT22;6603;47.066;15.396;2024-02-15T11:04:53;12.50;95.80
13074;DHT22;6603;47.066;15.396;2024-02-15T11:07:26;12.60;1.00
13074;DHT22;6603;47.066;15.396;2024-02-15T11:09:55;12.60;1.00
13074;DHT22;6603;47.066;15.396;2024-02-15T11:12:28;12.60;1.00
13074;DHT22;6603;47.066;15.396;2024-02-15T11:14:57;12.70;1.00
13074;DHT22;6603;47.066;15.396;2024-02-15T11:17:45;12.60;1.00
13074;DHT22;6603;47.066;15.396;2024-02-15T11:23:03;12.80;1.00
13074;DHT22;6603;47.066;15.396;2024-02-15T11:25:36;13.00;1.00
13074;DHT22;6603;47.066;15.396;2024-02-15T11:30:50;13.10;1.00
13074;DHT22;6603;47.066;15.396;2024-02-15T11:33:28;13.20;1.00
13074;DHT22;6603;47.066;15.396;2024-02-15T11:36:04;13.10;1.00
13074;DHT22;6603;47.066;15.396;2024-02-15T11:38:31;13.10;1.00
13074;DHT22;6603;47.066;15.396;2024-02-15T11:46:17;13.40;1.00
13074;DHT22;6603;47.066;15.396;2024-02-15T11:48:48;13.30;1.00
13074;DHT22;6603;47.066;15.396;2024-02-15T11:54:02;13.30;1.00
13074;DHT22;6603;47.066;15.396;2024-02-15T11:59:10;13.40;1.00
13074;DHT22;6603;47.066;15.396;2024-02-15T12:01:45;13.40;99.90
13074;DHT22;6603;47.066;15.396;2024-02-15T12:04:32;13.50;99.90
13074;DHT22;6603;47.066;15.396;2024-02-15T12:07:17;13.40;1.00
13074;DHT22;6603;47.066;15.396;2024-02-15T12:10:16;13.50;1.00
13074;DHT22;6603;47.066;15.396;2024-02-15T12:13:00;13.50;1.00
13074;DHT22;6603;47.066;15.396;2024-02-15T12:16:01;13.50;1.00
13074;DHT22;6603;47.066;15.396;2024-02-15T12:18:45;13.50;1.00
13074;DHT22;6603;47.066;15.396;2024-02-15T12:21:17;13.40;1.00
13074;DHT22;6603;47.066;15.396;2024-02-15T12:23:44;13.50;1.00
13074;DHT22;6603;47.066;15.396;2024-02-15T12:26:11;13.50;1.00
13074;DHT22;6603;47.066;15.396;2024-02-15T12:28:41;13.40;1.00
13074;DHT22;6603;47.066;15.396;2024-02-15T12:31:09;13.30;1.00
13074;DHT22;6603;47.066;15.396;2024-02-15T12:33:36;13.50;1.00
13074;DHT22;6603;47.066;15.396;2024-02-15T12:36:06;13.50;1.00
13074;DHT22;6603;47.066;15.396;2024-02-15T12:38:34;13.40;1.00
13074;DHT22;6603;47.066;15.396;2024-02-15T12:41:04;13.40;1.00
13074;DHT22;6603;47.066;15.396;2024-02-15T12:43:43;13.40;1.00
13074;DHT22;6603;47.066;15.396;2024-02-15T12:46:10;13.40;1.00
13074;DHT22;6603;47.066;15.396;2024-02-15T12:48:36;13.40;1.00
13074;DHT22;6603;47.066;15.396;2024-02-15T12:51:14;13.40;99.90
13074;DHT22;6603;47.066;15.396;2024-02-15T12:53:40;13.50;99.90
13074;DHT22;6603;47.066;15.396;2024-02-15T12:56:07;13.50;99.90
13074;DHT22;6603;47.066;15.396;2024-02-15T12:58:35;13.50;99.90
13074;DHT22;6603;47.066;15.396;2024-02-15T13:01:01;13.50;1.00
13074;DHT22;6603;47.066;15.396;2024-02-15T13:03:27;13.40;1.00
13074;DHT22;6603;47.066;15.396;2024-02-15T13:05:54;13.50;1.00
13074;DHT22;6603;47.066;15.396;2024-02-15T13:08:20;13.40;1.00
13074;DHT22;6603;47.066;15.396;2024-02-15T13:10:46;13.40;1.00
13074;DHT22;6603;47.066;15.396;2024-02-15T13:13:13;13.50;1.00
13074;DHT22;6603;47.066;15.396;2024-02-15T13:15:40;13.50;1.00
13074;DHT22;6603;47.066;15.396;2024-02-15T13:18:06;13.50;1.00
13074;DHT22;6603;47.066;15.396;2024-02-15T13:20:35;13.40;1.00
13074;DHT22;6603;47.066;15.396;2024-02-15T13:23:07;13.50;1.00
13074;DHT22;6603;47.066;15.396;2024-02-15T13:25:35;13.40;1.00
13074;DHT22;6603;47.066;15.396;2024-02-15T13:28:09;13.40;1.00
13074;DHT22;6603;47.066;15.396;2024-02-15T13:30:38;13.50;1.00
13074;DHT22;6603;47.066;15.396;2024-02-15T13:33:05;13.50;1.00
13074;DHT22;6603;47.066;15.396;2024-02-15T13:35:32;13.60;1.00
13074;DHT22;6603;47.066;15.396;2024-02-15T13:37:58;13.90;1.00
13074;DHT22;6603;47.066;15.396;2024-02-15T13:40:26;13.90;99.90
13074;DHT22;6603;47.066;15.396;2024-02-15T13:43:00;13.80;99.90
13074;DHT22;6603;47.066;15.396;2024-02-15T13:45:40;14.10;99.90
13074;DHT22;6603;47.066;15.396;2024-02-15T13:48:07;14.30;99.90
13074;DHT22;6603;47.066;15.396;2024-02-15T13:50:34;14.20;99.90
13074;DHT22;6603;47.066;15.396;2024-02-15T13:53:00;14.00;99.90
13074;DHT22;6603;47.066;15.396;2024-02-15T13:55:28;14.30;99.90
13074;DHT22;6603;47.066;15.396;2024-02-15T13:57:55;14.30;99.90
13074;DHT22;6603;47.066;15.396;2024-02-15T14:00:24;14.30;99.90
13074;DHT22;6603;47.066;15.396;2024-02-15T14:03:00;14.20;99.90
13074;DHT22;6603;47.066;15.396;2024-02-15T14:05:28;14.20;99.90
13074;DHT22;6603;47.066;15.396;2024-02-15T14:07:59;14.20;99.90
13074;DHT22;6603;47.066;15.396;2024-02-15T14:10:30;14.20;99.90
13074;DHT22;6603;47.066;15.396;2024-02-15T14:12:56;14.10;99.90
13074;DHT22;6603;47.066;15.396;2024-02-15T14:15:25;14.10;99.90
13074;DHT22;6603;47.066;15.396;2024-02-15T14:17:52;14.00;99.90
13074;DHT22;6603;47.066;15.396;2024-02-15T14:20:20;14.10;99.90
13074;DHT22;6603;47.066;15.396;2024-02-15T14:22:47;14.20;99.90
13074;DHT22;6603;47.066;15.396;2024-02-15T14:25:22;14.30;99.90
13074;DHT22;6603;47.066;15.396;2024-02-15T14:27:48;14.00;99.90
13074;DHT22;6603;47.066;15.396;2024-02-15T14:30:14;14.10;99.90
13074;DHT22;6603;47.066;15.396;2024-02-15T14:32:59;14.10;99.90
13074;DHT22;6603;47.066;15.396;2024-02-15T14:35:34;13.90;99.90
13074;DHT22;6603;47.066;15.396;2024-02-15T14:38:02;13.80;99.90
13074;DHT22;6603;47.066;15.396;2024-02-15T14:40:32;13.70;99.90
13074;DHT22;6603;47.066;15.396;2024-02-15T14:42:58;13.60;99.90
13074;DHT22;6603;47.066;15.396;2024-02-15T14:45:25;13.60;99.90
13074;DHT22;6603;47.066;15.396;2024-02-15T14:47:52;13.50;99.90
13074;DHT22;6603;47.066;15.396;2024-02-15T14:50:18;13.40;99.90
13074;DHT22;6603;47.066;15.396;2024-02-15T14:52:47;13.20;99.90
13074;DHT22;6603;47.066;15.396;2024-02-15T14:55:15;13.20;99.90
13074;DHT22;6603;47.066;15.396;2024-02-15T14:57:43;13.10;99.90
13074;DHT22;6603;47.066;15.396;2024-02-15T15:00:09;13.00;99.90
13074;DHT22;6603;47.066;15.396;2024-02-15T15:02:41;12.90;99.90
13074;DHT22;6603;47.066;15.396;2024-02-15T15:05:08;12.80;99.90
13074;DHT22;6603;47.066;15.396;2024-02-15T15:07:52;12.80;1.00
13074;DHT22;6603;47.066;15.396;2024-02-15T15:10:37;12.60;99.90
13074;DHT22;6603;47.066;15.396;2024-02-15T15:13:22;12.60;99.90
13074;DHT22;6603;47.066;15.396;2024-02-15T15:15:49;12.40;99.90
13074;DHT22;6603;47.066;15.396;2024-02-15T15:18:15;12.30;1.00
13074;DHT22;6603;47.066;15.396;2024-02-15T15:20:41;12.30;1.00
13074;DHT22;6603;47.066;15.396;2024-02-15T15:23:07;12.20;1.00
13074;DHT22;6603;47.066;15.396;2024-02-15T15:25:34;12.20;1.00
13074;DHT22;6603;47.066;15.396;2024-02-15T15:28:00;12.00;1.00
13074;DHT22;6603;47.066;15.396;2024-02-15T15:30:26;11.90;1.00
13074;DHT22;6603;47.066;15.396;2024-02-15T15:32:52;11.80;1.00
13074;DHT22;6603;47.066;15.396;2024-02-15T15:35:18;11.60;99.90
13074;DHT22;6603;47.066;15.396;2024-02-15T15:37:45;11.60;99.90
13074;DHT22;6603;47.066;15.396;2024-02-15T15:40:12;11.50;99.90
13074;DHT22;6603;47.066;15.396;2024-02-15T15:42:41;11.30;1.00
13074;DHT22;6603;47.066;15.396;2024-02-15T15:45:08;11.10;1.00
13074;DHT22;6603;47.066;15.396;2024-02-15T15:47:35;11.00;1.00
13074;DHT22;6603;47.066;15.396;2024-02-15T15:50:02;10.90;20.30
13074;DHT22;6603;47.066;15.396;2024-02-15T15:52:28;10.70;1.00
13074;DHT22;6603;47.066;15.396;2024-02-15T15:54:54;10.50;99.90
13074;DHT22;6603;47.066;15.396;2024-02-15T15:57:20;10.40;1.00
13074;DHT22;6603;47.066;15.396;2024-02-15T15:59:46;10.40;99.90
13074;DHT22;6603;47.066;15.396;2024-02-15T16:02:14;10.30;1.00
13074;DHT22;6603;47.066;15.396;2024-02-15T16:04:47;10.10;1.00
13074;DHT22;6603;47.066;15.396;2024-02-15T16:07:14;9.90;99.90
13074;DHT22;6603;47.066;15.396;2024-02-15T16:09:41;9.70;1.00
13074;DHT22;6603;47.066;15.396;2024-02-15T16:12:13;9.60;1.00